createdAt,value
2018-05-14T00:00:35.334Z,98.81
2018-05-14T00:01:35.522Z,98.71
2018-05-14T00:02:35.711Z,98.90
2018-05-14T00:03:35.901Z,99.10
2018-05-14T00:04:36.093Z,98.81
2018-05-14T00:05:36.283Z,99.00
2018-05-14T00:06:36.468Z,98.81
2018-05-14T00:07:36.658Z,98.90
2018-05-14T00:08:36.844Z,99.76
2018-05-14T00:09:37.035Z,99.57
2018-05-14T00:10:37.224Z,99.19
2018-05-14T00:11:37.413Z,99.38
2018-05-14T00:12:37.603Z,99.19
2018-05-14T00:13:37.791Z,99.48
2018-05-14T00:14:37.982Z,99.38
2018-05-14T00:15:38.168Z,99.19
2018-05-14T00:16:38.358Z,99.57
2018-05-14T00:17:38.545Z,99.24
2018-05-14T00:18:38.735Z,99.57
2018-05-14T00:19:38.925Z,99.48
2018-05-14T00:20:39.111Z,99.38
2018-05-14T00:21:39.301Z,99.71
2018-05-14T00:22:39.569Z,99.76
2018-05-14T00:23:39.678Z,99.62
2018-05-14T00:24:39.867Z,99.52
2018-05-14T00:25:40.056Z,99.99
2018-05-14T00:26:40.243Z,99.99
2018-05-14T00:27:40.432Z,99.99
2018-05-14T00:28:40.620Z,99.99
2018-05-14T00:29:40.808Z,99.99
2018-05-14T00:30:40.997Z,99.99
2018-05-14T00:31:41.187Z,99.99
2018-05-14T00:32:41.375Z,99.99
2018-05-14T00:33:41.564Z,99.99
2018-05-14T00:34:41.753Z,99.99
2018-05-14T00:35:41.940Z,99.99
2018-05-14T00:36:42.129Z,99.99
2018-05-14T00:37:42.314Z,99.99
2018-05-14T00:38:42.502Z,99.99
2018-05-14T00:39:42.692Z,99.99
2018-05-14T00:40:42.880Z,99.99
2018-05-14T00:41:43.068Z,99.99
2018-05-14T00:42:43.256Z,99.99
2018-05-14T00:43:43.444Z,99.99
2018-05-14T00:44:43.634Z,99.99
2018-05-14T00:45:43.821Z,99.99
2018-05-14T00:46:44.010Z,99.99
2018-05-14T00:47:44.197Z,99.99
2018-05-14T00:48:44.386Z,99.99
2018-05-14T00:49:44.573Z,99.99
2018-05-14T00:50:44.769Z,99.99
2018-05-14T00:51:44.955Z,99.99
2018-05-14T00:52:45.144Z,99.99
2018-05-14T00:53:45.333Z,99.99
2018-05-14T00:54:45.522Z,99.99
2018-05-14T00:55:45.709Z,99.99
2018-05-14T00:56:45.897Z,99.99
2018-05-14T00:57:46.089Z,99.99
2018-05-14T00:58:46.276Z,99.99
2018-05-14T00:59:46.460Z,99.99
2018-05-14T01:00:46.649Z,99.99
2018-05-14T01:01:46.838Z,99.99
2018-05-14T01:02:47.032Z,99.99
2018-05-14T01:03:47.214Z,99.99
2018-05-14T01:04:47.404Z,99.99
2018-05-14T01:05:47.594Z,99.99
2018-05-14T01:06:47.781Z,99.99
2018-05-14T01:07:47.970Z,99.99
2018-05-14T01:08:48.158Z,99.99
2018-05-14T01:09:48.346Z,99.99
2018-05-14T01:10:48.534Z,99.99
2018-05-14T01:11:48.721Z,99.99
2018-05-14T01:12:48.908Z,99.99
2018-05-14T01:13:49.095Z,99.99
2018-05-14T01:14:49.283Z,99.99
2018-05-14T01:15:49.473Z,99.99
2018-05-14T01:16:49.661Z,98.57
2018-05-14T01:17:49.848Z,98.66
2018-05-14T01:18:50.041Z,98.57
2018-05-14T01:19:50.224Z,99.24
2018-05-14T01:20:50.420Z,98.57
2018-05-14T01:21:50.602Z,98.95
2018-05-14T01:22:50.789Z,98.38
2018-05-14T01:23:50.978Z,98.38
2018-05-14T01:24:51.166Z,98.23
2018-05-14T01:25:51.354Z,98.42
2018-05-14T01:26:51.544Z,98.71
2018-05-14T01:27:51.730Z,98.66
2018-05-14T01:28:51.920Z,98.71
2018-05-14T01:29:52.106Z,98.61
2018-05-14T01:30:52.295Z,98.33
2018-05-14T01:31:52.482Z,98.52
2018-05-14T01:32:52.670Z,98.52
2018-05-14T01:33:52.857Z,98.52
2018-05-14T01:34:53.047Z,98.71
2018-05-14T01:35:53.235Z,99.57
2018-05-14T01:36:53.424Z,98.71
2018-05-14T01:37:53.615Z,98.75
2018-05-14T01:38:53.799Z,98.23
2018-05-14T01:39:53.988Z,98.33
2018-05-14T01:40:54.176Z,98.71
2018-05-14T01:41:54.366Z,98.66
2018-05-14T01:42:54.554Z,97.75
2018-05-14T01:43:54.743Z,97.94
2018-05-14T01:44:54.931Z,98.71
2018-05-14T01:45:55.117Z,98.33
2018-05-14T01:46:55.308Z,98.33
2018-05-14T01:47:55.497Z,98.52
2018-05-14T01:48:55.721Z,97.66
2018-05-14T01:49:55.869Z,97.85
2018-05-14T01:50:56.060Z,98.52
2018-05-14T01:51:56.245Z,98.23
2018-05-14T01:52:56.439Z,98.61
2018-05-14T01:53:56.619Z,98.71
2018-05-14T01:54:56.809Z,98.90
2018-05-14T01:55:56.995Z,97.75
2018-05-14T01:56:57.183Z,97.94
2018-05-14T01:57:57.371Z,97.85
2018-05-14T01:58:57.560Z,97.66
2018-05-14T01:59:57.748Z,97.94
2018-05-14T02:00:57.937Z,98.33
2018-05-14T02:01:58.125Z,98.90
2018-05-14T02:02:58.312Z,98.42
2018-05-14T02:03:58.502Z,98.80
2018-05-14T02:04:58.688Z,98.42
2018-05-14T02:05:58.876Z,98.52
2018-05-14T02:06:59.110Z,98.80
2018-05-14T02:07:59.255Z,99.57
2018-05-14T02:08:59.443Z,99.57
2018-05-14T02:09:59.637Z,99.48
2018-05-14T02:10:59.819Z,99.43
2018-05-14T02:12:00.007Z,99.52
2018-05-14T02:13:00.193Z,99.43
2018-05-14T02:14:00.381Z,99.23
2018-05-14T02:15:00.570Z,98.85
2018-05-14T02:16:00.759Z,98.90
2018-05-14T02:17:00.945Z,98.33
2018-05-14T02:18:01.134Z,98.52
2018-05-14T02:19:01.321Z,97.71
2018-05-14T02:20:01.510Z,97.37
2018-05-14T02:21:01.698Z,97.75
2018-05-14T02:22:01.884Z,97.18
2018-05-14T02:23:02.072Z,97.37
2018-05-14T02:24:02.260Z,97.28
2018-05-14T02:25:02.447Z,97.18
2018-05-14T02:26:02.635Z,97.56
2018-05-14T02:27:02.823Z,97.66
2018-05-14T02:28:03.015Z,97.03
2018-05-14T02:29:03.202Z,97.32
2018-05-14T02:30:03.396Z,97.61
2018-05-14T02:31:03.577Z,97.42
2018-05-14T02:32:03.769Z,97.56
2018-05-14T02:33:03.956Z,97.03
2018-05-14T02:34:04.149Z,97.32
2018-05-14T02:35:04.331Z,97.89
2018-05-14T02:36:04.522Z,97.80
2018-05-14T02:37:04.706Z,97.61
2018-05-14T02:38:04.892Z,97.80
2018-05-14T02:39:05.086Z,97.32
2018-05-14T02:40:05.269Z,97.61
2018-05-14T02:41:05.457Z,97.52
2018-05-14T02:42:05.646Z,98.08
2018-05-14T02:43:05.833Z,97.89
2018-05-14T02:44:06.022Z,98.66
2018-05-14T02:45:06.209Z,98.57
2018-05-14T02:46:06.397Z,98.57
2018-05-14T02:47:06.585Z,97.71
2018-05-14T02:48:06.773Z,97.71
2018-05-14T02:49:06.961Z,97.71
2018-05-14T02:50:07.149Z,97.66
2018-05-14T02:51:07.336Z,97.56
2018-05-14T02:52:07.525Z,97.66
2018-05-14T02:53:07.712Z,97.80
2018-05-14T02:54:07.899Z,97.89
2018-05-14T02:55:08.091Z,97.32
2018-05-14T02:56:08.276Z,97.99
2018-05-14T02:57:08.464Z,98.57
2018-05-14T02:58:08.654Z,97.89
2018-05-14T02:59:08.840Z,98.85
2018-05-14T03:00:09.028Z,98.37
2018-05-14T03:01:09.219Z,98.57
2018-05-14T03:02:09.403Z,98.66
2018-05-14T03:03:09.591Z,97.89
2018-05-14T03:04:09.779Z,97.42
2018-05-14T03:05:09.967Z,97.52
2018-05-14T03:06:10.152Z,97.42
2018-05-14T03:07:10.343Z,97.71
2018-05-14T03:08:10.535Z,97.52
2018-05-14T03:09:10.719Z,96.66
2018-05-14T03:10:10.908Z,97.32
2018-05-14T03:11:11.096Z,96.75
2018-05-14T03:12:11.283Z,97.32
2018-05-14T03:13:11.470Z,97.23
2018-05-14T03:14:11.659Z,97.89
2018-05-14T03:15:11.847Z,97.89
2018-05-14T03:16:12.035Z,97.42
2018-05-14T03:17:12.223Z,97.71
2018-05-14T03:18:12.410Z,98.57
2018-05-14T03:19:12.599Z,98.94
2018-05-14T03:20:12.790Z,98.28
2018-05-14T03:21:12.972Z,98.28
2018-05-14T03:22:13.160Z,98.47
2018-05-14T03:23:13.347Z,98.47
2018-05-14T03:24:13.533Z,98.85
2018-05-14T03:25:13.722Z,98.66
2018-05-14T03:26:13.910Z,98.66
2018-05-14T03:27:14.100Z,98.47
2018-05-14T03:28:14.286Z,99.08
2018-05-14T03:29:14.475Z,99.37
2018-05-14T03:30:14.663Z,99.28
2018-05-14T03:31:14.850Z,98.52
2018-05-14T03:32:15.038Z,98.37
2018-05-14T03:33:15.225Z,98.85
2018-05-14T03:34:15.417Z,98.80
2018-05-14T03:35:15.604Z,98.23
2018-05-14T03:36:15.792Z,98.42
2018-05-14T03:37:15.979Z,98.61
2018-05-14T03:38:16.168Z,98.23
2018-05-14T03:39:16.358Z,98.23
2018-05-14T03:40:16.546Z,98.42
2018-05-14T03:41:16.733Z,98.61
2018-05-14T03:42:16.921Z,98.61
2018-05-14T03:43:17.108Z,98.61
2018-05-14T03:44:17.296Z,99.47
2018-05-14T03:45:17.485Z,99.18
2018-05-14T03:46:17.761Z,98.71
2018-05-14T03:47:17.864Z,98.23
2018-05-14T03:48:18.050Z,98.57
2018-05-14T03:49:18.238Z,97.61
2018-05-14T03:50:18.424Z,97.03
2018-05-14T03:51:18.691Z,97.13
2018-05-14T03:52:18.802Z,96.37
2018-05-14T03:53:18.992Z,96.66
2018-05-14T03:54:19.185Z,95.89
2018-05-14T03:55:19.365Z,95.61
2018-05-14T03:56:19.559Z,94.98
2018-05-14T03:57:19.743Z,94.51
2018-05-14T03:58:19.932Z,94.22
2018-05-14T03:59:20.123Z,94.51
2018-05-14T04:00:20.311Z,93.65
2018-05-14T04:01:20.501Z,94.41
2018-05-14T04:02:20.749Z,94.79
2018-05-14T04:03:20.879Z,93.84
2018-05-14T04:04:21.068Z,94.12
2018-05-14T04:05:21.255Z,94.93
2018-05-14T04:06:21.447Z,94.93
2018-05-14T04:07:21.633Z,95.70
2018-05-14T04:08:21.827Z,95.61
2018-05-14T04:09:22.011Z,95.98
2018-05-14T04:10:22.199Z,95.22
2018-05-14T04:11:22.389Z,94.98
2018-05-14T04:12:22.582Z,94.70
2018-05-14T04:13:22.765Z,93.74
2018-05-14T04:14:22.953Z,94.02
2018-05-14T04:15:23.144Z,93.93
2018-05-14T04:16:23.331Z,92.88
2018-05-14T04:17:23.520Z,92.74
2018-05-14T04:18:23.710Z,91.97
2018-05-14T04:19:23.899Z,92.07
2018-05-14T04:20:24.090Z,91.59
2018-05-14T04:21:24.278Z,91.68
2018-05-14T04:22:24.471Z,91.02
2018-05-14T04:23:24.660Z,90.44
2018-05-14T04:24:24.861Z,90.53
2018-05-14T04:25:25.040Z,90.06
2018-05-14T04:26:25.229Z,89.58
2018-05-14T04:27:25.419Z,89.29
2018-05-14T04:28:25.611Z,89.48
2018-05-14T04:29:25.802Z,89.39
2018-05-14T04:30:25.994Z,90.53
2018-05-14T04:31:26.183Z,90.06
2018-05-14T04:32:26.373Z,90.34
2018-05-14T04:33:26.563Z,91.30
2018-05-14T04:34:26.753Z,91.83
2018-05-14T04:35:26.945Z,91.64
2018-05-14T04:36:27.144Z,91.83
2018-05-14T04:37:27.329Z,92.11
2018-05-14T04:38:27.519Z,90.78
2018-05-14T04:39:27.710Z,90.30
2018-05-14T04:40:27.902Z,90.78
2018-05-14T04:41:28.091Z,90.68
2018-05-14T04:42:28.283Z,90.30
2018-05-14T04:43:28.474Z,90.01
2018-05-14T04:44:28.664Z,90.49
2018-05-14T04:45:28.856Z,89.53
2018-05-14T04:46:29.047Z,90.01
2018-05-14T04:47:29.239Z,89.82
2018-05-14T04:48:29.429Z,89.87
2018-05-14T04:49:29.619Z,89.67
2018-05-14T04:50:29.812Z,88.19
2018-05-14T04:51:30.004Z,86.85
2018-05-14T04:52:30.193Z,86.08
2018-05-14T04:53:30.385Z,85.80
2018-05-14T04:54:30.577Z,86.08
2018-05-14T04:55:30.769Z,86.57
2018-05-14T04:56:30.959Z,86.28
2018-05-14T04:57:31.151Z,87.14
2018-05-14T04:58:31.349Z,86.47
2018-05-14T04:59:31.536Z,86.08
2018-05-14T05:00:31.732Z,85.89
2018-05-14T05:01:31.910Z,85.27
2018-05-14T05:02:32.106Z,84.50
2018-05-14T05:03:32.297Z,83.59
2018-05-14T05:04:32.490Z,83.11
2018-05-14T05:05:32.684Z,82.06
2018-05-14T05:06:32.877Z,81.57
2018-05-14T05:07:33.070Z,81.77
2018-05-14T05:08:33.262Z,82.63
2018-05-14T05:09:33.455Z,82.53
2018-05-14T05:10:33.716Z,82.43
2018-05-14T05:11:33.857Z,80.66
2018-05-14T05:12:34.038Z,80.66
2018-05-14T05:13:34.232Z,80.56
2018-05-14T05:14:34.430Z,78.84
2018-05-14T05:15:34.621Z,78.69
2018-05-14T05:16:34.815Z,78.69
2018-05-14T05:17:35.012Z,77.48
2018-05-14T05:18:35.208Z,77.48
2018-05-14T05:19:35.404Z,77.48
2018-05-14T05:20:35.606Z,75.98
2018-05-14T05:21:35.798Z,75.40
2018-05-14T05:22:36.005Z,75.60
2018-05-14T05:23:36.191Z,76.17
2018-05-14T05:24:36.388Z,76.37
2018-05-14T05:25:36.585Z,74.35
2018-05-14T05:26:36.786Z,74.16
2018-05-14T05:27:36.981Z,75.37
2018-05-14T05:28:37.185Z,75.85
2018-05-14T05:29:37.380Z,76.71
2018-05-14T05:30:37.579Z,76.57
2018-05-14T05:31:37.778Z,76.29
2018-05-14T05:32:37.978Z,77.53
2018-05-14T05:33:38.175Z,77.53
2018-05-14T05:34:38.381Z,77.48
2018-05-14T05:35:38.582Z,77.09
2018-05-14T05:36:38.778Z,76.04
2018-05-14T05:37:39.004Z,75.27
2018-05-14T05:38:39.177Z,75.85
2018-05-14T05:39:39.380Z,74.89
2018-05-14T05:40:39.581Z,76.52
2018-05-14T05:41:39.768Z,74.79
2018-05-14T05:42:39.967Z,74.64
2018-05-14T05:43:40.168Z,74.98
2018-05-14T05:44:40.367Z,74.69
2018-05-14T05:45:40.603Z,74.41
2018-05-14T05:46:40.768Z,75.27
2018-05-14T05:47:40.966Z,74.44
2018-05-14T05:48:41.169Z,74.16
2018-05-14T05:49:41.371Z,74.31
2018-05-14T05:50:41.570Z,74.98
2018-05-14T05:51:41.775Z,74.16
2018-05-14T05:52:41.973Z,73.00
2018-05-14T05:53:42.172Z,73.49
2018-05-14T05:54:42.375Z,73.00
2018-05-14T05:55:42.577Z,72.91
2018-05-14T05:56:42.777Z,73.00
2018-05-14T05:57:42.978Z,72.81
2018-05-14T05:58:43.178Z,72.30
2018-05-14T05:59:43.382Z,74.26
2018-05-14T06:00:43.582Z,73.10
2018-05-14T06:01:43.781Z,72.81
2018-05-14T06:02:43.984Z,73.07
2018-05-14T06:03:44.254Z,75.52
2018-05-14T06:04:44.387Z,75.52
2018-05-14T06:05:44.588Z,76.00
2018-05-14T06:06:44.787Z,74.91
2018-05-14T06:07:44.987Z,75.48
2018-05-14T06:08:45.184Z,76.35
2018-05-14T06:09:45.386Z,76.10
2018-05-14T06:10:45.585Z,75.01
2018-05-14T06:11:45.786Z,75.39
2018-05-14T06:12:45.981Z,75.29
2018-05-14T06:13:46.179Z,75.62
2018-05-14T06:14:46.377Z,76.57
2018-05-14T06:15:46.571Z,76.67
2018-05-14T06:16:46.774Z,76.57
2018-05-14T06:17:47.007Z,76.10
2018-05-14T06:18:47.163Z,77.15
2018-05-14T06:19:47.360Z,76.39
2018-05-14T06:20:47.554Z,75.33
2018-05-14T06:21:47.748Z,74.76
2018-05-14T06:22:47.947Z,74.85
2018-05-14T06:23:48.136Z,74.95
2018-05-14T06:24:48.340Z,75.14
2018-05-14T06:25:48.534Z,74.98
2018-05-14T06:26:48.725Z,74.98
2018-05-14T06:27:48.930Z,75.04
2018-05-14T06:28:49.116Z,75.37
2018-05-14T06:29:49.309Z,74.89
2018-05-14T06:30:49.503Z,75.18
2018-05-14T06:31:49.697Z,74.79
2018-05-14T06:32:49.893Z,74.60
2018-05-14T06:33:50.086Z,74.12
2018-05-14T06:34:50.277Z,74.79
2018-05-14T06:35:50.587Z,74.98
2018-05-14T06:36:50.666Z,74.41
2018-05-14T06:37:50.857Z,73.10
2018-05-14T06:38:51.050Z,73.87
2018-05-14T06:39:51.244Z,73.10
2018-05-14T06:40:51.438Z,72.14
2018-05-14T06:41:51.635Z,71.89
2018-05-14T06:42:51.823Z,70.93
2018-05-14T06:43:52.026Z,70.78
2018-05-14T06:44:52.212Z,70.52
2018-05-14T06:45:52.407Z,69.69
2018-05-14T06:46:52.608Z,68.83
2018-05-14T06:47:52.796Z,68.83
2018-05-14T06:48:52.993Z,67.93
2018-05-14T06:49:53.271Z,69.21
2018-05-14T06:50:53.383Z,68.54
2018-05-14T06:51:53.579Z,67.25
2018-05-14T06:52:53.778Z,66.77
2018-05-14T06:53:53.974Z,68.89
2018-05-14T06:54:54.173Z,68.35
2018-05-14T06:55:54.478Z,67.35
2018-05-14T06:56:54.575Z,68.60
2018-05-14T06:57:54.770Z,67.70
2018-05-14T06:58:54.971Z,67.54
2018-05-14T06:59:55.169Z,67.64
2018-05-14T07:00:55.413Z,67.25
2018-05-14T07:01:55.802Z,67.25
2018-05-14T07:02:55.768Z,67.07
2018-05-14T07:03:55.969Z,67.54
2018-05-14T07:04:56.169Z,67.41
2018-05-14T07:05:56.368Z,67.61
2018-05-14T07:06:56.569Z,69.24
2018-05-14T07:07:56.768Z,69.01
2018-05-14T07:08:56.966Z,70.36
2018-05-14T07:09:57.167Z,69.30
2018-05-14T07:10:57.366Z,68.76
2018-05-14T07:11:57.565Z,66.84
2018-05-14T07:12:57.768Z,67.41
2018-05-14T07:13:57.961Z,67.35
2018-05-14T07:14:58.161Z,67.48
2018-05-14T07:15:58.361Z,66.74
2018-05-14T07:16:58.560Z,66.61
2018-05-14T07:17:58.758Z,66.61
2018-05-14T07:18:58.959Z,66.71
2018-05-14T07:19:59.159Z,67.35
2018-05-14T07:20:59.358Z,68.60
2018-05-14T07:21:59.552Z,68.28
2018-05-14T07:22:59.755Z,68.85
2018-05-14T07:23:59.952Z,67.51
2018-05-14T07:25:00.151Z,68.57
2018-05-14T07:26:00.347Z,68.08
2018-05-14T07:27:00.547Z,67.90
2018-05-14T07:28:00.744Z,68.31
2018-05-14T07:29:00.942Z,67.74
2018-05-14T07:30:01.141Z,67.35
2018-05-14T07:31:01.355Z,68.06
2018-05-14T07:32:01.536Z,67.42
2018-05-14T07:33:01.733Z,66.52
2018-05-14T07:34:01.931Z,66.55
2018-05-14T07:35:02.129Z,66.46
2018-05-14T07:36:02.327Z,65.72
2018-05-14T07:37:02.524Z,65.24
2018-05-14T07:38:02.723Z,65.94
2018-05-14T07:39:02.920Z,64.56
2018-05-14T07:40:03.120Z,65.94
2018-05-14T07:41:03.320Z,64.69
2018-05-14T07:42:03.519Z,65.08
2018-05-14T07:43:03.717Z,63.92
2018-05-14T07:44:03.919Z,64.63
2018-05-14T07:45:04.123Z,63.79
2018-05-14T07:46:04.329Z,62.51
2018-05-14T07:47:04.524Z,60.61
2018-05-14T07:48:04.725Z,62.93
2018-05-14T07:49:04.928Z,62.57
2018-05-14T07:50:05.133Z,61.77
2018-05-14T07:51:05.329Z,60.87
2018-05-14T07:52:05.528Z,62.93
2018-05-14T07:53:05.729Z,60.80
2018-05-14T07:54:05.929Z,61.54
2018-05-14T07:55:06.133Z,60.10
2018-05-14T07:56:06.331Z,58.75
2018-05-14T07:57:06.536Z,58.14
2018-05-14T07:58:06.735Z,59.84
2018-05-14T07:59:06.936Z,59.27
2018-05-14T08:00:07.137Z,59.48
2018-05-14T08:01:07.339Z,58.01
2018-05-14T08:02:07.543Z,59.48
2018-05-14T08:03:07.744Z,58.62
2018-05-14T08:04:07.946Z,57.85
2018-05-14T08:05:08.148Z,58.91
2018-05-14T08:06:08.349Z,58.36
2018-05-14T08:07:08.550Z,57.20
2018-05-14T08:08:08.750Z,56.81
2018-05-14T08:09:08.951Z,56.01
2018-05-14T08:10:09.153Z,56.24
2018-05-14T08:11:09.352Z,57.32
2018-05-14T08:12:09.555Z,57.49
2018-05-14T08:13:09.761Z,57.59
2018-05-14T08:14:09.959Z,57.17
2018-05-14T08:15:10.167Z,58.23
2018-05-14T08:16:10.364Z,57.78
2018-05-14T08:17:10.564Z,57.39
2018-05-14T08:18:10.767Z,56.94
2018-05-14T08:19:10.969Z,57.10
2018-05-14T08:20:11.170Z,57.29
2018-05-14T08:21:11.373Z,56.43
2018-05-14T08:22:11.574Z,58.10
2018-05-14T08:23:11.773Z,56.62
2018-05-14T08:24:11.975Z,57.39
2018-05-14T08:25:12.176Z,56.52
2018-05-14T08:26:12.376Z,56.52
2018-05-14T08:27:12.576Z,56.56
2018-05-14T08:28:12.778Z,55.30
2018-05-14T08:29:12.978Z,55.23
2018-05-14T08:30:13.182Z,53.59
2018-05-14T08:31:13.384Z,55.62
2018-05-14T08:32:13.583Z,54.75
2018-05-14T08:33:13.784Z,54.65
2018-05-14T08:34:13.991Z,53.83
2018-05-14T08:35:14.184Z,53.91
2018-05-14T08:36:14.384Z,54.53
2018-05-14T08:37:14.684Z,55.88
2018-05-14T08:38:14.789Z,55.59
2018-05-14T08:39:14.991Z,55.33
2018-05-14T08:40:15.190Z,53.69
2018-05-14T08:41:15.392Z,54.97
2018-05-14T08:42:15.593Z,54.22
2018-05-14T08:43:15.794Z,53.77
2018-05-14T08:44:15.994Z,53.64
2018-05-14T08:45:16.193Z,51.03
2018-05-14T08:46:16.396Z,53.45
2018-05-14T08:47:16.597Z,52.12
2018-05-14T08:48:16.798Z,51.35
2018-05-14T08:49:17.002Z,52.94
2018-05-14T08:50:17.203Z,54.58
2018-05-14T08:51:17.401Z,53.78
2018-05-14T08:52:17.603Z,53.88
2018-05-14T08:53:17.805Z,53.11
2018-05-14T08:54:18.063Z,53.23
2018-05-14T08:55:18.206Z,53.93
2018-05-14T08:56:18.406Z,53.20
2018-05-14T08:57:18.612Z,54.75
2018-05-14T08:58:18.811Z,52.94
2018-05-14T08:59:19.013Z,53.97
2018-05-14T09:00:19.210Z,53.03
2018-05-14T09:01:19.414Z,53.13
2018-05-14T09:02:19.613Z,52.17
2018-05-14T09:03:19.815Z,52.87
2018-05-14T09:04:20.013Z,52.55
2018-05-14T09:05:20.214Z,52.67
2018-05-14T09:06:20.415Z,52.29
2018-05-14T09:07:20.615Z,52.77
2018-05-14T09:08:20.817Z,52.48
2018-05-14T09:09:21.019Z,52.44
2018-05-14T09:10:21.215Z,51.25
2018-05-14T09:11:21.415Z,50.67
2018-05-14T09:12:21.620Z,50.55
2018-05-14T09:13:21.817Z,51.06
2018-05-14T09:14:22.014Z,52.02
2018-05-14T09:15:22.214Z,50.93
2018-05-14T09:16:22.413Z,51.73
2018-05-14T09:17:22.614Z,51.35
2018-05-14T09:18:22.814Z,52.31
2018-05-14T09:19:23.041Z,50.18
2018-05-14T09:20:23.218Z,51.23
2018-05-14T09:21:23.414Z,50.67
2018-05-14T09:22:23.615Z,50.86
2018-05-14T09:23:23.816Z,51.76
2018-05-14T09:24:24.015Z,50.76
2018-05-14T09:25:24.269Z,52.02
2018-05-14T09:26:24.414Z,51.64
2018-05-14T09:27:24.616Z,50.65
2018-05-14T09:28:24.816Z,53.28
2018-05-14T09:29:25.011Z,51.44
2018-05-14T09:30:25.211Z,51.64
2018-05-14T09:31:25.483Z,53.23
2018-05-14T09:32:25.610Z,51.59
2018-05-14T09:33:25.809Z,51.13
2018-05-14T09:34:26.011Z,50.77
2018-05-14T09:35:26.208Z,48.97
2018-05-14T09:36:26.413Z,48.97
2018-05-14T09:37:26.607Z,50.82
2018-05-14T09:38:26.806Z,50.72
2018-05-14T09:39:27.008Z,51.01
2018-05-14T09:40:27.204Z,49.75
2018-05-14T09:41:27.404Z,49.92
2018-05-14T09:42:27.606Z,49.99
2018-05-14T09:43:27.804Z,50.18
2018-05-14T09:44:28.014Z,50.67
2018-05-14T09:45:28.203Z,50.40
2018-05-14T09:46:28.402Z,50.92
2018-05-14T09:47:28.601Z,48.95
2018-05-14T09:48:28.800Z,48.74
2018-05-14T09:49:29.130Z,49.22
2018-05-14T09:50:29.260Z,50.50
2018-05-14T09:51:29.394Z,50.60
2018-05-14T09:52:29.593Z,49.51
2018-05-14T09:53:29.793Z,49.99
2018-05-14T09:54:29.990Z,48.74
2018-05-14T09:55:30.189Z,49.12
2018-05-14T09:56:30.388Z,49.15
2018-05-14T09:57:30.586Z,49.63
2018-05-14T09:58:30.784Z,49.65
2018-05-14T09:59:30.982Z,50.04
2018-05-14T10:00:31.179Z,48.39
2018-05-14T10:01:31.374Z,49.05
2018-05-14T10:02:31.573Z,49.95
2018-05-14T10:03:31.852Z,49.85
2018-05-14T10:04:31.969Z,48.59
2018-05-14T10:05:32.168Z,48.69
2018-05-14T10:06:32.366Z,47.91
2018-05-14T10:07:32.563Z,48.69
2018-05-14T10:08:32.761Z,49.58
2018-05-14T10:09:32.958Z,48.79
2018-05-14T10:10:33.155Z,46.84
2018-05-14T10:11:33.351Z,48.20
2018-05-14T10:12:33.549Z,49.07
2018-05-14T10:13:33.748Z,47.64
2018-05-14T10:14:33.943Z,46.09
2018-05-14T10:15:34.141Z,46.36
2018-05-14T10:16:34.338Z,47.41
2018-05-14T10:17:34.539Z,47.89
2018-05-14T10:18:34.735Z,48.79
2018-05-14T10:19:34.931Z,48.01
2018-05-14T10:20:35.129Z,48.79
2018-05-14T10:21:35.324Z,49.27
2018-05-14T10:22:35.522Z,50.16
2018-05-14T10:23:35.720Z,47.81
2018-05-14T10:24:36.004Z,48.49
2018-05-14T10:25:36.112Z,48.47
2018-05-14T10:26:36.311Z,48.79
2018-05-14T10:27:36.506Z,48.95
2018-05-14T10:28:36.705Z,48.47
2018-05-14T10:29:36.898Z,48.86
2018-05-14T10:30:37.093Z,49.24
2018-05-14T10:31:37.290Z,48.88
2018-05-14T10:32:37.485Z,47.89
2018-05-14T10:33:37.681Z,47.79
2018-05-14T10:34:37.877Z,47.89
2018-05-14T10:35:38.073Z,47.52
2018-05-14T10:36:38.267Z,48.01
2018-05-14T10:37:38.463Z,46.26
2018-05-14T10:38:38.658Z,46.75
2018-05-14T10:39:38.857Z,46.25
2018-05-14T10:40:39.108Z,47.52
2018-05-14T10:41:39.245Z,47.24
2018-05-14T10:42:39.444Z,47.04
2018-05-14T10:43:39.637Z,46.83
2018-05-14T10:44:39.832Z,47.62
2018-05-14T10:45:40.029Z,47.62
2018-05-14T10:46:40.296Z,47.81
2018-05-14T10:47:40.424Z,46.25
2018-05-14T10:48:40.616Z,47.21
2018-05-14T10:49:40.812Z,48.57
2018-05-14T10:50:41.006Z,49.44
2018-05-14T10:51:41.203Z,49.63
2018-05-14T10:52:41.397Z,51.13
2018-05-14T10:53:41.591Z,49.00
2018-05-14T10:54:41.788Z,49.19
2018-05-14T10:55:42.065Z,50.07
2018-05-14T10:56:42.175Z,49.87
2018-05-14T10:57:42.375Z,49.68
2018-05-14T10:58:42.641Z,49.58
2018-05-14T10:59:42.766Z,47.14
2018-05-14T11:00:42.957Z,48.20
2018-05-14T11:01:43.155Z,46.46
2018-05-14T11:02:43.351Z,47.04
2018-05-14T11:03:43.547Z,47.43
2018-05-14T11:04:43.743Z,45.76
2018-05-14T11:05:43.939Z,45.28
2018-05-14T11:06:44.134Z,47.14
2018-05-14T11:07:44.331Z,46.36
2018-05-14T11:08:44.522Z,46.66
2018-05-14T11:09:44.717Z,46.75
2018-05-14T11:10:44.914Z,45.42
2018-05-14T11:11:45.114Z,46.36
2018-05-14T11:12:45.302Z,45.40
2018-05-14T11:13:45.499Z,45.10
2018-05-14T11:14:45.698Z,45.01
2018-05-14T11:15:45.891Z,46.08
2018-05-14T11:16:46.088Z,46.75
2018-05-14T11:17:46.281Z,45.88
2018-05-14T11:18:46.495Z,47.06
2018-05-14T11:19:46.674Z,46.39
2018-05-14T11:20:46.868Z,45.51
2018-05-14T11:21:47.067Z,45.42
2018-05-14T11:22:47.260Z,45.71
2018-05-14T11:23:47.455Z,46.70
2018-05-14T11:24:47.650Z,46.29
2018-05-14T11:25:47.853Z,45.81
2018-05-14T11:26:48.041Z,45.90
2018-05-14T11:27:48.249Z,45.88
2018-05-14T11:28:48.431Z,46.00
2018-05-14T11:29:48.626Z,44.81
2018-05-14T11:30:48.821Z,45.30
2018-05-14T11:31:49.018Z,45.81
2018-05-14T11:32:49.212Z,45.90
2018-05-14T11:33:49.408Z,45.13
2018-05-14T11:34:49.599Z,45.61
2018-05-14T11:35:49.793Z,45.22
2018-05-14T11:36:49.992Z,45.81
2018-05-14T11:37:50.183Z,46.00
2018-05-14T11:38:50.379Z,45.51
2018-05-14T11:39:50.572Z,45.42
2018-05-14T11:40:50.768Z,45.32
2018-05-14T11:41:50.963Z,45.34
2018-05-14T11:42:51.162Z,44.37
2018-05-14T11:43:51.354Z,45.32
2018-05-14T11:44:51.550Z,44.37
2018-05-14T11:45:51.743Z,44.84
2018-05-14T11:46:51.940Z,44.84
2018-05-14T11:47:52.134Z,45.61
2018-05-14T11:48:52.331Z,47.28
2018-05-14T11:49:52.525Z,47.19
2018-05-14T11:50:52.762Z,45.95
2018-05-14T11:51:52.914Z,45.27
2018-05-14T11:52:53.109Z,45.54
2018-05-14T11:53:53.304Z,44.76
2018-05-14T11:54:53.500Z,45.44
2018-05-14T11:55:53.693Z,44.96
2018-05-14T11:56:53.891Z,44.54
2018-05-14T11:57:54.084Z,44.96
2018-05-14T11:58:54.279Z,44.86
2018-05-14T11:59:54.473Z,46.12
2018-05-14T12:00:54.669Z,45.34
2018-05-14T12:01:54.864Z,46.80
2018-05-14T12:02:55.076Z,45.83
2018-05-14T12:03:55.255Z,45.05
2018-05-14T12:04:55.450Z,44.27
2018-05-14T12:05:55.643Z,43.99
2018-05-14T12:06:55.841Z,44.57
2018-05-14T12:07:56.038Z,45.75
2018-05-14T12:08:56.232Z,45.27
2018-05-14T12:09:56.427Z,43.13
2018-05-14T12:10:56.622Z,42.07
2018-05-14T12:11:56.818Z,42.72
2018-05-14T12:12:57.015Z,44.47
2018-05-14T12:13:57.211Z,44.78
2018-05-14T12:14:57.403Z,43.43
2018-05-14T12:15:57.610Z,44.10
2018-05-14T12:16:57.796Z,44.01
2018-05-14T12:17:57.995Z,44.40
2018-05-14T12:18:58.188Z,44.98
2018-05-14T12:19:58.382Z,43.79
2018-05-14T12:20:58.577Z,44.78
2018-05-14T12:21:58.773Z,43.91
2018-05-14T12:22:58.968Z,43.13
2018-05-14T12:23:59.164Z,42.92
2018-05-14T12:24:59.358Z,43.89
2018-05-14T12:25:59.556Z,42.71
2018-05-14T12:26:59.749Z,43.99
2018-05-14T12:27:59.944Z,43.02
2018-05-14T12:29:00.140Z,42.46
2018-05-14T12:30:00.336Z,43.23
2018-05-14T12:31:00.532Z,41.68
2018-05-14T12:32:00.806Z,41.97
2018-05-14T12:33:00.924Z,42.36
2018-05-14T12:34:01.122Z,43.33
2018-05-14T12:35:01.316Z,43.23
2018-05-14T12:36:01.511Z,41.39
2018-05-14T12:37:01.707Z,40.33
2018-05-14T12:38:01.904Z,42.85
2018-05-14T12:39:02.097Z,42.17
2018-05-14T12:40:02.294Z,40.59
2018-05-14T12:41:02.491Z,41.78
2018-05-14T12:42:02.685Z,42.94
2018-05-14T12:43:02.880Z,42.36
2018-05-14T12:44:03.075Z,41.39
2018-05-14T12:45:03.273Z,43.06
2018-05-14T12:46:03.527Z,41.20
2018-05-14T12:47:03.659Z,42.96
2018-05-14T12:48:03.855Z,41.70
2018-05-14T12:49:04.050Z,41.41
2018-05-14T12:50:04.247Z,40.42
2018-05-14T12:51:04.445Z,41.20
2018-05-14T12:52:04.640Z,42.09
2018-05-14T12:53:04.835Z,39.74
2018-05-14T12:54:05.033Z,40.71
2018-05-14T12:55:05.226Z,40.91